Weather at Edson Airport

Public forecast

Using degrees Celsius for public forecast. Weather courtesy of forecast.io.

Current aviation weather report (METAR) for Edson Airport

Retrieved 2021/12/02 08:00 UTC (49 minutes ago):

CYET 020800Z AUTO 28002KT 9SM BKN091 M03/M03 A2962 RMK SLP069

Closest aviation forecast (TAF) to Edson Airport

Forecast is more than 12 hours old.

Closest forecast is Whitecourt Airport, 41.6 nm (77.0 km) NE. Retrieved 2021/12/01 19:00 UTC (14 hours ago):

TAF CYZU 011838Z 0119/0123 29008KT P6SM BKN140 RMK NXT FCST WILL BE ISSUED AT 021415Z